Northfield, New Jersey
Current Conditions -  °F | °C
As of 12:54 PM on Friday 24 Oct 2014 (Local Time) from KACY Reporting Station
Broken Clouds Broken Clouds  
Wind Chill: 64°   Ceiling: 4200
Heat Index: 64°   Visibility: 10mi
Dew Point: 46°   Wind: 22mph
Humidity: 52%   Direction: 310°NW
Pressure: 29.82"   Gusts: 28mph
Location:  39.37°N, 74.55°W
Report Text: KACY 241654Z 31019G24KT 10SM BKN042 18/08 A2982 RMK AO2 SLP097 T01780078
Loading
Personal Weather Stations






























Interactive Weather Map
Tropical Storm Tracking
New forecast layout! Learn more

10-Day Weather Forecast

Advertisements
Track Severe Weather on mobile